createdAt,value
2024-01-17T00:02:55.304Z,43.45
2024-01-17T00:06:12.865Z,43.67
2024-01-17T00:09:24.261Z,43.82
2024-01-17T00:12:29.868Z,43.95
2024-01-17T00:15:45.238Z,43.90
2024-01-17T00:19:09.174Z,44.03
2024-01-17T00:22:33.022Z,43.83
2024-01-17T00:25:56.844Z,43.75
2024-01-17T00:29:20.806Z,43.62
2024-01-17T00:32:44.417Z,43.83
2024-01-17T00:36:08.138Z,43.98
2024-01-17T00:39:31.810Z,43.46
2024-01-17T00:42:55.283Z,43.42
2024-01-17T00:46:18.754Z,43.42
2024-01-17T00:49:42.500Z,43.52
2024-01-17T00:53:06.194Z,43.46
2024-01-17T00:56:30.043Z,43.68
2024-01-17T00:59:53.664Z,43.53
2024-01-17T01:03:17.257Z,43.84
2024-01-17T01:06:40.706Z,44.23
2024-01-17T01:10:04.284Z,43.74
2024-01-17T01:13:27.739Z,43.60
2024-01-17T01:16:51.234Z,43.38
2024-01-17T01:20:15.013Z,43.29
2024-01-17T01:23:38.773Z,43.25
2024-01-17T01:27:02.323Z,43.29
2024-01-17T01:30:26.081Z,43.61
2024-01-17T01:33:50.342Z,43.50
2024-01-17T01:37:13.963Z,43.59
2024-01-17T01:40:38.251Z,43.49
2024-01-17T01:44:01.941Z,43.59
2024-01-17T01:47:25.582Z,43.81
2024-01-17T01:50:49.363Z,43.98
2024-01-17T01:54:13.029Z,44.12
2024-01-17T01:57:36.793Z,44.33
2024-01-17T02:01:00.463Z,44.52
2024-01-17T02:04:23.800Z,44.46
2024-01-17T02:07:48.298Z,44.42
2024-01-17T02:11:11.918Z,44.58
2024-01-17T02:14:35.530Z,44.63
2024-01-17T02:17:59.386Z,44.89
2024-01-17T02:21:23.204Z,44.87
2024-01-17T02:24:46.866Z,44.94
2024-01-17T02:28:10.449Z,45.13
2024-01-17T02:31:34.224Z,45.20
2024-01-17T02:34:57.653Z,45.11
2024-01-17T02:38:21.246Z,45.19
2024-01-17T02:41:44.750Z,45.58
2024-01-17T02:45:08.609Z,45.97
2024-01-17T02:48:32.557Z,46.21
2024-01-17T02:51:56.262Z,46.45
2024-01-17T02:55:19.896Z,46.49
2024-01-17T02:58:43.529Z,46.57
2024-01-17T03:02:07.166Z,46.59
2024-01-17T03:05:30.781Z,46.52
2024-01-17T03:08:54.565Z,46.26
2024-01-17T03:12:18.574Z,46.24
2024-01-17T03:15:42.315Z,46.19
2024-01-17T03:19:06.128Z,46.29
2024-01-17T03:22:29.890Z,46.39
2024-01-17T03:25:53.637Z,46.37
2024-01-17T03:29:16.893Z,46.38
2024-01-17T03:32:40.700Z,46.64
2024-01-17T03:36:04.483Z,46.57
2024-01-17T03:39:28.273Z,46.62
2024-01-17T03:42:52.066Z,46.51
2024-01-17T03:46:15.758Z,46.51
2024-01-17T03:49:39.556Z,46.46
2024-01-17T03:53:03.321Z,46.45
2024-01-17T03:56:27.102Z,46.54
2024-01-17T03:59:50.703Z,46.45
2024-01-17T04:03:14.566Z,46.45
2024-01-17T04:06:37.875Z,46.50
2024-01-17T04:10:01.729Z,46.45
2024-01-17T04:13:25.363Z,46.82
2024-01-17T04:16:48.708Z,46.80
2024-01-17T04:20:12.382Z,46.95
2024-01-17T04:23:36.856Z,47.10
2024-01-17T04:27:01.056Z,47.07
2024-01-17T04:30:24.742Z,47.34
2024-01-17T04:33:48.507Z,47.52
2024-01-17T04:37:12.029Z,47.54
2024-01-17T04:40:35.500Z,47.36
2024-01-17T04:43:59.198Z,47.43
2024-01-17T04:47:22.842Z,47.62
2024-01-17T04:50:46.584Z,47.54
2024-01-17T04:54:10.482Z,47.48
2024-01-17T04:57:33.805Z,47.43
2024-01-17T05:00:57.439Z,47.32
2024-01-17T05:04:21.211Z,47.83
2024-01-17T05:07:44.991Z,47.96
2024-01-17T05:11:08.671Z,47.91
2024-01-17T05:14:32.276Z,47.97
2024-01-17T05:17:56.244Z,47.69
2024-01-17T05:21:20.210Z,47.82
2024-01-17T05:24:43.698Z,47.73
2024-01-17T05:28:07.553Z,47.80
2024-01-17T05:31:31.366Z,47.69
2024-01-17T05:34:54.919Z,47.62
2024-01-17T05:38:18.184Z,47.58
2024-01-17T05:41:41.864Z,47.55
2024-01-17T05:45:05.861Z,47.21
2024-01-17T05:48:29.664Z,47.10
2024-01-17T05:51:53.550Z,47.49
2024-01-17T05:55:16.965Z,47.67
2024-01-17T05:58:40.624Z,47.78
2024-01-17T06:02:08.697Z,48.05
2024-01-17T06:05:32.332Z,48.33
2024-01-17T06:08:55.914Z,48.53
2024-01-17T06:12:19.676Z,48.82
2024-01-17T06:15:43.336Z,48.89
2024-01-17T06:19:07.890Z,49.03
2024-01-17T06:22:32.804Z,49.08
2024-01-17T06:25:56.558Z,49.08
2024-01-17T06:29:22.008Z,49.05
2024-01-17T06:32:46.056Z,49.03
2024-01-17T06:36:13.176Z,48.89
2024-01-17T06:39:36.541Z,48.59
2024-01-17T06:43:01.848Z,48.80
2024-01-17T06:46:25.610Z,48.82
2024-01-17T06:49:52.205Z,48.79
2024-01-17T06:53:21.271Z,48.58
2024-01-17T06:56:47.426Z,48.55
2024-01-17T07:00:20.830Z,48.62
2024-01-17T07:03:55.701Z,48.55
2024-01-17T07:07:19.821Z,48.71
2024-01-17T07:10:45.312Z,48.46
2024-01-17T07:14:15.927Z,48.34
2024-01-17T07:17:42.480Z,48.23
2024-01-17T07:21:11.813Z,47.85
2024-01-17T07:24:47.860Z,47.59
2024-01-17T07:28:13.396Z,47.01
2024-01-17T07:31:52.843Z,46.34
2024-01-17T07:35:23.708Z,46.18
2024-01-17T07:39:02.972Z,45.70
2024-01-17T07:42:32.473Z,45.12
2024-01-17T07:46:03.192Z,45.08
2024-01-17T07:49:40.960Z,44.88
2024-01-17T07:53:12.969Z,44.37
2024-01-17T07:56:50.888Z,43.54
2024-01-17T08:00:16.763Z,43.28
2024-01-17T08:03:45.811Z,42.92
2024-01-17T08:07:14.822Z,42.49
2024-01-17T08:10:48.796Z,42.08
2024-01-17T08:14:19.984Z,41.84
2024-01-17T08:17:58.970Z,41.67
2024-01-17T08:21:28.878Z,40.66
2024-01-17T08:25:06.934Z,40.66
2024-01-17T08:28:39.264Z,40.56
2024-01-17T08:32:15.980Z,40.70
2024-01-17T08:35:45.984Z,40.42
2024-01-17T08:39:24.984Z,40.37
2024-01-17T08:42:58.048Z,40.07
2024-01-17T08:46:36.145Z,39.61
2024-01-17T08:50:06.885Z,39.66
2024-01-17T08:53:46.093Z,39.42
2024-01-17T08:57:17.170Z,39.25
2024-01-17T09:01:02.012Z,39.21
2024-01-17T09:04:27.260Z,38.43
2024-01-17T09:08:12.144Z,38.21
2024-01-17T09:11:43.027Z,38.18
2024-01-17T09:15:21.002Z,37.97
2024-01-17T09:18:52.256Z,37.97
2024-01-17T09:22:31.086Z,37.41
2024-01-17T09:25:56.410Z,37.28
2024-01-17T09:29:29.958Z,37.05
2024-01-17T09:33:02.275Z,37.07
2024-01-17T09:36:42.174Z,36.97
2024-01-17T09:40:13.082Z,36.83
2024-01-17T09:43:52.022Z,36.61
2024-01-17T09:47:18.727Z,36.08
2024-01-17T09:50:58.557Z,35.60
2024-01-17T09:54:24.382Z,35.78
2024-01-17T09:58:02.113Z,35.54
2024-01-17T10:01:29.322Z,35.29
2024-01-17T10:05:12.095Z,35.35
2024-01-17T10:08:43.064Z,35.02
2024-01-17T10:12:18.044Z,35.08
2024-01-17T10:15:43.185Z,34.56
2024-01-17T10:19:17.705Z,34.83
2024-01-17T10:22:49.231Z,34.69
2024-01-17T10:26:17.960Z,34.95
2024-01-17T10:29:49.216Z,34.76
2024-01-17T10:33:20.257Z,34.68
2024-01-17T10:36:52.173Z,34.19
2024-01-17T10:40:32.136Z,34.36
2024-01-17T10:43:58.589Z,34.46
2024-01-17T10:47:37.202Z,34.18
2024-01-17T10:51:02.482Z,33.99
2024-01-17T10:54:46.267Z,34.19
2024-01-17T10:58:12.048Z,33.94
2024-01-17T11:01:46.168Z,34.00
2024-01-17T11:05:16.277Z,34.05
2024-01-17T11:08:57.261Z,33.94
2024-01-17T11:12:28.535Z,33.54
2024-01-17T11:16:07.173Z,34.10
2024-01-17T11:19:38.327Z,34.58
2024-01-17T11:23:17.179Z,34.31
2024-01-17T11:26:48.374Z,33.72
2024-01-17T11:30:27.319Z,33.96
2024-01-17T11:33:58.498Z,33.76
2024-01-17T11:37:39.228Z,34.18
2024-01-17T11:41:11.261Z,33.89
2024-01-17T11:44:44.244Z,34.29
2024-01-17T11:48:15.307Z,34.88
2024-01-17T11:51:49.281Z,35.18
2024-01-17T11:55:16.266Z,35.35
2024-01-17T11:58:41.361Z,35.10
2024-01-17T12:02:08.244Z,35.26
2024-01-17T12:05:45.283Z,35.19
2024-01-17T12:09:16.409Z,35.05
2024-01-17T12:12:55.318Z,34.65
2024-01-17T12:16:20.561Z,34.68
2024-01-17T12:19:57.406Z,34.65
2024-01-17T12:23:18.618Z,34.39
2024-01-17T12:27:02.367Z,34.84
2024-01-17T12:30:33.335Z,35.35
2024-01-17T12:34:08.243Z,36.05
2024-01-17T12:37:33.718Z,36.34
2024-01-17T12:41:18.468Z,36.10
2024-01-17T12:44:41.947Z,36.61
2024-01-17T12:48:20.676Z,37.36
2024-01-17T12:51:50.452Z,37.90
2024-01-17T12:55:34.398Z,38.01
2024-01-17T12:58:57.585Z,38.09
2024-01-17T13:02:36.448Z,38.38
2024-01-17T13:06:03.163Z,38.37
2024-01-17T13:09:41.363Z,37.96
2024-01-17T13:13:00.879Z,38.02
2024-01-17T13:16:37.433Z,37.92
2024-01-17T13:20:08.409Z,38.17
2024-01-17T13:23:46.492Z,38.51
2024-01-17T13:27:10.292Z,38.78
2024-01-17T13:30:44.391Z,38.54
2024-01-17T13:34:06.280Z,38.60
2024-01-17T13:37:45.422Z,38.17
2024-01-17T13:41:14.533Z,38.11
2024-01-17T13:44:41.216Z,38.02
2024-01-17T13:48:11.690Z,38.12
2024-01-17T13:51:56.429Z,38.60
2024-01-17T13:55:34.714Z,38.43
2024-01-17T13:59:07.499Z,38.48
2024-01-17T14:02:44.446Z,38.77
2024-01-17T14:06:17.825Z,38.73
2024-01-17T14:09:52.489Z,38.65
2024-01-17T14:13:00.870Z,38.35
2024-01-17T14:15:34.958Z,38.45
2024-01-17T14:18:09.388Z,38.25
2024-01-17T14:20:37.093Z,38.64
2024-01-17T14:23:05.293Z,39.19
2024-01-17T14:25:33.425Z,39.68
2024-01-17T14:28:01.868Z,39.49
2024-01-17T14:30:30.865Z,39.48
2024-01-17T14:33:00.214Z,40.09
2024-01-17T14:35:30.120Z,40.52
2024-01-17T14:37:58.351Z,41.19
2024-01-17T14:40:26.049Z,41.56
2024-01-17T14:42:59.829Z,41.54
2024-01-17T14:45:35.397Z,41.80
2024-01-17T14:48:06.523Z,41.63
2024-01-17T14:50:38.895Z,41.78
2024-01-17T14:53:13.486Z,41.75
2024-01-17T14:55:44.205Z,41.78
2024-01-17T14:58:16.866Z,41.93
2024-01-17T15:00:49.267Z,42.07
2024-01-17T15:03:23.093Z,42.33
2024-01-17T15:05:56.991Z,42.28
2024-01-17T15:08:33.041Z,42.65
2024-01-17T15:11:06.841Z,42.64
2024-01-17T15:13:40.547Z,42.44
2024-01-17T15:16:23.768Z,42.73
2024-01-17T15:18:57.530Z,42.96
2024-01-17T15:21:31.608Z,42.89
2024-01-17T15:24:09.833Z,43.15
2024-01-17T15:26:44.963Z,43.11
2024-01-17T15:29:19.538Z,43.22
2024-01-17T15:31:53.181Z,43.04
2024-01-17T15:34:26.999Z,43.31
2024-01-17T15:37:00.845Z,43.22
2024-01-17T15:39:34.579Z,43.29
2024-01-17T15:42:08.329Z,43.51
2024-01-17T15:44:42.260Z,43.56
2024-01-17T15:47:17.426Z,43.56
2024-01-17T15:49:51.275Z,43.47
2024-01-17T15:52:25.129Z,43.53
2024-01-17T15:54:58.776Z,43.47
2024-01-17T15:57:32.622Z,43.47
2024-01-17T16:00:10.788Z,43.56
2024-01-17T16:02:47.455Z,43.37
2024-01-17T16:05:21.327Z,43.54
2024-01-17T16:07:55.081Z,43.38
2024-01-17T16:10:28.902Z,43.45
2024-01-17T16:13:02.628Z,43.23
2024-01-17T16:15:36.634Z,43.21
2024-01-17T16:18:11.600Z,43.17
2024-01-17T16:20:45.583Z,43.00
2024-01-17T16:23:19.408Z,43.03
2024-01-17T16:25:53.193Z,43.19
2024-01-17T16:28:26.927Z,43.22
2024-01-17T16:31:02.826Z,43.15
2024-01-17T16:33:36.808Z,43.04
2024-01-17T16:36:10.765Z,43.32
2024-01-17T16:38:46.199Z,43.46
2024-01-17T16:41:23.403Z,43.36
2024-01-17T16:43:57.154Z,43.43
2024-01-17T16:46:30.892Z,43.44
2024-01-17T16:49:04.986Z,43.39
2024-01-17T16:51:38.911Z,43.61
2024-01-17T16:54:13.340Z,43.41
2024-01-17T16:56:47.125Z,43.50
2024-01-17T16:59:20.858Z,43.59
2024-01-17T17:01:54.771Z,43.38
2024-01-17T17:04:28.901Z,43.50
2024-01-17T17:07:02.710Z,43.71
2024-01-17T17:09:36.399Z,43.98
2024-01-17T17:12:10.194Z,43.99
2024-01-17T17:14:44.796Z,44.01
2024-01-17T17:17:18.817Z,43.95
2024-01-17T17:19:53.193Z,43.85
2024-01-17T17:22:36.940Z,43.90
2024-01-17T17:25:12.010Z,43.78
2024-01-17T17:27:47.579Z,43.91
2024-01-17T17:30:22.030Z,43.97
2024-01-17T17:32:55.930Z,44.20
2024-01-17T17:35:29.688Z,44.18
2024-01-17T17:38:05.198Z,44.16
2024-01-17T17:40:43.223Z,44.25
2024-01-17T17:43:19.166Z,44.38
2024-01-17T17:45:53.673Z,44.29
2024-01-17T17:48:27.820Z,44.04
2024-01-17T17:51:01.857Z,44.04
2024-01-17T17:53:36.890Z,44.24
2024-01-17T17:56:10.741Z,44.23
2024-01-17T17:58:44.468Z,44.41
2024-01-17T18:01:18.264Z,44.50
2024-01-17T18:03:52.221Z,44.53
2024-01-17T18:06:26.144Z,44.42
2024-01-17T18:09:00.468Z,44.43
2024-01-17T18:11:35.777Z,44.36
2024-01-17T18:14:09.532Z,44.35
2024-01-17T18:16:43.232Z,44.18
2024-01-17T18:19:18.306Z,44.46
2024-01-17T18:21:53.215Z,44.44
2024-01-17T18:24:26.977Z,43.94
2024-01-17T18:27:00.753Z,43.96
2024-01-17T18:29:34.667Z,44.04
2024-01-17T18:32:08.444Z,43.99
2024-01-17T18:34:42.313Z,44.26
2024-01-17T18:37:16.330Z,44.00
2024-01-17T18:39:50.071Z,44.20
2024-01-17T18:42:24.514Z,44.16
2024-01-17T18:44:58.239Z,44.18
2024-01-17T18:47:32.231Z,44.44
2024-01-17T18:50:06.206Z,44.30
2024-01-17T18:52:39.945Z,44.32
2024-01-17T18:55:14.335Z,45.03
2024-01-17T18:57:48.232Z,44.86
2024-01-17T19:00:21.983Z,45.02
2024-01-17T19:02:56.216Z,45.12
2024-01-17T19:05:30.643Z,45.26
2024-01-17T19:08:05.628Z,45.45
2024-01-17T19:10:39.655Z,45.53
2024-01-17T19:13:15.553Z,45.49
2024-01-17T19:15:49.523Z,45.61
2024-01-17T19:18:23.218Z,45.60
2024-01-17T19:20:58.760Z,45.90
2024-01-17T19:23:32.542Z,45.86
2024-01-17T19:26:09.712Z,45.87
2024-01-17T19:28:44.017Z,46.27
2024-01-17T19:31:17.845Z,46.70
2024-01-17T19:33:52.922Z,46.87
2024-01-17T19:36:26.862Z,47.30
2024-01-17T19:39:00.708Z,47.22
2024-01-17T19:41:35.435Z,46.75
2024-01-17T19:44:09.268Z,46.37
2024-01-17T19:46:43.539Z,46.40
2024-01-17T19:49:31.878Z,45.91
2024-01-17T19:52:08.211Z,45.69
2024-01-17T19:54:44.310Z,45.96
2024-01-17T19:57:18.249Z,46.07
2024-01-17T19:59:52.067Z,46.04
2024-01-17T20:02:28.413Z,45.98
2024-01-17T20:05:02.162Z,45.91
2024-01-17T20:07:36.186Z,46.09
2024-01-17T20:10:10.207Z,45.94
2024-01-17T20:12:44.093Z,45.75
2024-01-17T20:15:17.924Z,45.77
2024-01-17T20:17:51.833Z,45.89
2024-01-17T20:20:25.765Z,45.89
2024-01-17T20:22:59.471Z,45.99
2024-01-17T20:25:33.340Z,46.33
2024-01-17T20:28:07.701Z,46.70
2024-01-17T20:30:42.598Z,46.75
2024-01-17T20:33:16.906Z,46.84
2024-01-17T20:35:50.722Z,47.02
2024-01-17T20:38:24.522Z,47.20
2024-01-17T20:40:59.148Z,47.39
2024-01-17T20:43:32.852Z,47.53
2024-01-17T20:46:06.620Z,47.73
2024-01-17T20:48:40.484Z,47.61
2024-01-17T20:51:24.573Z,47.63
2024-01-17T20:53:58.688Z,47.51
2024-01-17T20:56:32.355Z,47.48
2024-01-17T20:59:06.105Z,47.43
2024-01-17T21:01:40.973Z,47.52
2024-01-17T21:04:15.007Z,47.58
2024-01-17T21:06:50.593Z,47.46
2024-01-17T21:09:24.453Z,47.52
2024-01-17T21:11:59.707Z,47.62
2024-01-17T21:15:22.370Z,47.51
2024-01-17T21:18:40.379Z,47.92
2024-01-17T21:21:58.377Z,47.90
2024-01-17T21:25:16.403Z,48.21
2024-01-17T21:28:40.561Z,48.42
2024-01-17T21:32:04.361Z,48.58
2024-01-17T21:35:27.819Z,48.51
2024-01-17T21:38:51.667Z,48.35
2024-01-17T21:42:15.630Z,48.30
2024-01-17T21:45:39.640Z,48.34
2024-01-17T21:48:58.134Z,48.42
2024-01-17T21:52:20.652Z,48.26
2024-01-17T21:55:44.395Z,48.29
2024-01-17T21:59:08.099Z,48.37
2024-01-17T22:02:31.662Z,48.29
2024-01-17T22:05:55.247Z,48.38
2024-01-17T22:09:19.024Z,48.46
2024-01-17T22:12:42.733Z,48.40
2024-01-17T22:16:06.272Z,48.42
2024-01-17T22:19:30.585Z,48.54
2024-01-17T22:22:54.655Z,48.56
2024-01-17T22:26:17.969Z,48.61
2024-01-17T22:29:42.654Z,48.79
2024-01-17T22:33:06.154Z,48.79
2024-01-17T22:36:30.436Z,48.94
2024-01-17T22:39:53.942Z,48.99
2024-01-17T22:43:17.565Z,48.83
2024-01-17T22:46:41.243Z,48.74
2024-01-17T22:50:05.224Z,48.93
2024-01-17T22:53:29.307Z,48.89
2024-01-17T22:56:53.044Z,48.90
2024-01-17T23:00:16.706Z,48.84
2024-01-17T23:03:40.930Z,48.93
2024-01-17T23:07:04.887Z,48.76
2024-01-17T23:10:28.687Z,48.91
2024-01-17T23:13:52.320Z,48.93
2024-01-17T23:17:16.116Z,49.05
2024-01-17T23:20:39.970Z,49.30
2024-01-17T23:24:03.983Z,49.25
2024-01-17T23:27:27.483Z,49.18
2024-01-17T23:30:52.861Z,49.24
2024-01-17T23:34:16.678Z,49.29
2024-01-17T23:37:40.263Z,49.41
2024-01-17T23:41:03.918Z,49.64
2024-01-17T23:44:27.515Z,49.84
2024-01-17T23:47:51.222Z,49.81
2024-01-17T23:51:14.805Z,49.81
2024-01-17T23:54:38.650Z,49.98
2024-01-17T23:58:02.236Z,50.13
